sensor_id;sensor_type;location;lat;lon;timestamp;P1;durP1;ratioP1;P2;durP2;ratioP2
47856;SDS011;33618;49.972;8.242;2022-12-07T00:01:31;12.10;;;7.45;;
47856;SDS011;33618;49.972;8.242;2022-12-07T00:04:01;13.43;;;7.40;;
47856;SDS011;33618;49.972;8.242;2022-12-07T00:06:33;10.70;;;7.07;;
47856;SDS011;33618;49.972;8.242;2022-12-07T00:09:02;13.10;;;7.80;;
47856;SDS011;33618;49.972;8.242;2022-12-07T00:11:30;12.73;;;6.97;;
47856;SDS011;33618;49.972;8.242;2022-12-07T00:13:58;11.82;;;7.05;;
47856;SDS011;33618;49.972;8.242;2022-12-07T00:16:28;8.73;;;6.05;;
47856;SDS011;33618;49.972;8.242;2022-12-07T00:18:56;9.52;;;6.30;;
47856;SDS011;33618;49.972;8.242;2022-12-07T00:21:25;12.05;;;6.53;;
47856;SDS011;33618;49.972;8.242;2022-12-07T00:23:54;12.65;;;6.53;;
47856;SDS011;33618;49.972;8.242;2022-12-07T00:26:23;12.30;;;7.13;;
47856;SDS011;33618;49.972;8.242;2022-12-07T00:28:55;13.75;;;7.60;;
47856;SDS011;33618;49.972;8.242;2022-12-07T00:31:24;13.77;;;6.82;;
47856;SDS011;33618;49.972;8.242;2022-12-07T00:33:52;10.68;;;6.82;;
47856;SDS011;33618;49.972;8.242;2022-12-07T00:36:21;12.57;;;6.93;;
47856;SDS011;33618;49.972;8.242;2022-12-07T00:38:53;12.95;;;7.00;;
47856;SDS011;33618;49.972;8.242;2022-12-07T00:41:21;13.55;;;6.93;;
47856;SDS011;33618;49.972;8.242;2022-12-07T00:43:49;9.85;;;6.50;;
47856;SDS011;33618;49.972;8.242;2022-12-07T00:46:17;11.68;;;7.95;;
47856;SDS011;33618;49.972;8.242;2022-12-07T00:48:45;11.75;;;6.90;;
47856;SDS011;33618;49.972;8.242;2022-12-07T00:51:14;11.38;;;6.82;;
47856;SDS011;33618;49.972;8.242;2022-12-07T00:53:42;11.18;;;6.82;;
47856;SDS011;33618;49.972;8.242;2022-12-07T00:56:11;11.90;;;6.80;;
47856;SDS011;33618;49.972;8.242;2022-12-07T00:58:40;9.60;;;6.78;;
47856;SDS011;33618;49.972;8.242;2022-12-07T01:01:08;8.50;;;6.40;;
47856;SDS011;33618;49.972;8.242;2022-12-07T01:03:42;12.48;;;7.00;;
47856;SDS011;33618;49.972;8.242;2022-12-07T01:06:09;11.00;;;6.60;;
47856;SDS011;33618;49.972;8.242;2022-12-07T01:08:44;12.52;;;6.60;;
47856;SDS011;33618;49.972;8.242;2022-12-07T01:11:12;11.48;;;6.60;;
47856;SDS011;33618;49.972;8.242;2022-12-07T01:13:42;10.45;;;6.43;;
47856;SDS011;33618;49.972;8.242;2022-12-07T01:16:10;8.90;;;6.55;;
47856;SDS011;33618;49.972;8.242;2022-12-07T01:18:39;9.23;;;6.30;;
47856;SDS011;33618;49.972;8.242;2022-12-07T01:21:09;12.35;;;6.45;;
47856;SDS011;33618;49.972;8.242;2022-12-07T01:23:38;12.68;;;6.43;;
47856;SDS011;33618;49.972;8.242;2022-12-07T01:26:06;13.13;;;6.70;;
47856;SDS011;33618;49.972;8.242;2022-12-07T01:28:36;10.23;;;6.63;;
47856;SDS011;33618;49.972;8.242;2022-12-07T01:31:07;9.35;;;6.30;;
47856;SDS011;33618;49.972;8.242;2022-12-07T01:33:41;10.32;;;6.93;;
47856;SDS011;33618;49.972;8.242;2022-12-07T01:38:43;12.18;;;7.03;;
47856;SDS011;33618;49.972;8.242;2022-12-07T01:41:10;12.25;;;6.53;;
47856;SDS011;33618;49.972;8.242;2022-12-07T01:46:35;12.52;;;6.43;;
47856;SDS011;33618;49.972;8.242;2022-12-07T01:49:05;11.32;;;6.45;;
47856;SDS011;33618;49.972;8.242;2022-12-07T01:51:35;13.93;;;7.10;;
47856;SDS011;33618;49.972;8.242;2022-12-07T01:54:04;12.43;;;7.05;;
47856;SDS011;33618;49.972;8.242;2022-12-07T01:56:32;11.15;;;6.55;;
47856;SDS011;33618;49.972;8.242;2022-12-07T01:58:59;11.20;;;6.78;;
47856;SDS011;33618;49.972;8.242;2022-12-07T02:01:27;11.52;;;6.57;;
47856;SDS011;33618;49.972;8.242;2022-12-07T02:03:54;11.52;;;6.40;;
47856;SDS011;33618;49.972;8.242;2022-12-07T02:06:23;11.20;;;6.80;;
47856;SDS011;33618;49.972;8.242;2022-12-07T02:08:51;12.40;;;6.72;;
47856;SDS011;33618;49.972;8.242;2022-12-07T02:11:19;10.73;;;6.70;;
47856;SDS011;33618;49.972;8.242;2022-12-07T02:13:47;10.90;;;6.60;;
47856;SDS011;33618;49.972;8.242;2022-12-07T02:16:36;11.30;;;7.32;;
47856;SDS011;33618;49.972;8.242;2022-12-07T02:22:39;10.75;;;6.45;;
47856;SDS011;33618;49.972;8.242;2022-12-07T02:28:12;9.15;;;6.18;;
47856;SDS011;33618;49.972;8.242;2022-12-07T02:30:54;12.40;;;6.88;;
47856;SDS011;33618;49.972;8.242;2022-12-07T02:33:37;11.38;;;6.50;;
47856;SDS011;33618;49.972;8.242;2022-12-07T02:36:17;9.85;;;6.28;;
47856;SDS011;33618;49.972;8.242;2022-12-07T02:38:55;12.10;;;6.93;;
47856;SDS011;33618;49.972;8.242;2022-12-07T02:41:29;9.52;;;6.20;;
47856;SDS011;33618;49.972;8.242;2022-12-07T02:44:07;8.68;;;5.95;;
47856;SDS011;33618;49.972;8.242;2022-12-07T02:46:42;11.90;;;6.15;;
47856;SDS011;33618;49.972;8.242;2022-12-07T02:49:14;10.93;;;6.03;;
47856;SDS011;33618;49.972;8.242;2022-12-07T02:51:42;9.18;;;6.13;;
47856;SDS011;33618;49.972;8.242;2022-12-07T02:54:12;11.05;;;7.03;;
47856;SDS011;33618;49.972;8.242;2022-12-07T03:07:56;11.48;;;5.97;;
47856;SDS011;33618;49.972;8.242;2022-12-07T03:16:16;9.23;;;5.63;;
47856;SDS011;33618;49.972;8.242;2022-12-07T03:22:30;7.97;;;4.93;;
47856;SDS011;33618;49.972;8.242;2022-12-07T03:25:01;8.93;;;5.05;;
47856;SDS011;33618;49.972;8.242;2022-12-07T03:27:45;8.90;;;5.35;;
47856;SDS011;33618;49.972;8.242;2022-12-07T03:30:20;10.00;;;5.50;;
47856;SDS011;33618;49.972;8.242;2022-12-07T03:33:28;8.57;;;5.57;;
47856;SDS011;33618;49.972;8.242;2022-12-07T03:36:09;7.78;;;5.13;;
47856;SDS011;33618;49.972;8.242;2022-12-07T03:38:44;7.55;;;5.25;;
47856;SDS011;33618;49.972;8.242;2022-12-07T03:41:24;7.75;;;4.75;;
47856;SDS011;33618;49.972;8.242;2022-12-07T03:43:53;8.20;;;5.47;;
47856;SDS011;33618;49.972;8.242;2022-12-07T03:46:29;7.25;;;5.25;;
47856;SDS011;33618;49.972;8.242;2022-12-07T03:49:12;7.95;;;5.72;;
47856;SDS011;33618;49.972;8.242;2022-12-07T03:51:57;10.57;;;5.95;;
47856;SDS011;33618;49.972;8.242;2022-12-07T03:54:51;9.75;;;6.07;;
47856;SDS011;33618;49.972;8.242;2022-12-07T03:57:24;7.37;;;5.37;;
47856;SDS011;33618;49.972;8.242;2022-12-07T03:59:54;8.15;;;5.72;;
47856;SDS011;33618;49.972;8.242;2022-12-07T04:22:13;9.98;;;5.80;;
47856;SDS011;33618;49.972;8.242;2022-12-07T04:24:40;9.90;;;5.88;;
47856;SDS011;33618;49.972;8.242;2022-12-07T04:27:06;10.30;;;6.50;;
47856;SDS011;33618;49.972;8.242;2022-12-07T04:29:33;8.70;;;6.15;;
47856;SDS011;33618;49.972;8.242;2022-12-07T04:32:00;10.25;;;6.78;;
47856;SDS011;33618;49.972;8.242;2022-12-07T04:34:27;13.60;;;6.55;;
47856;SDS011;33618;49.972;8.242;2022-12-07T04:36:54;8.65;;;6.05;;
47856;SDS011;33618;49.972;8.242;2022-12-07T04:39:25;10.90;;;6.53;;
47856;SDS011;33618;49.972;8.242;2022-12-07T04:41:53;11.30;;;6.90;;
47856;SDS011;33618;49.972;8.242;2022-12-07T04:44:21;14.85;;;6.80;;
47856;SDS011;33618;49.972;8.242;2022-12-07T04:46:49;10.45;;;6.65;;
47856;SDS011;33618;49.972;8.242;2022-12-07T04:49:17;11.98;;;6.88;;
47856;SDS011;33618;49.972;8.242;2022-12-07T04:51:44;11.43;;;7.18;;
47856;SDS011;33618;49.972;8.242;2022-12-07T04:54:11;11.50;;;6.97;;
47856;SDS011;33618;49.972;8.242;2022-12-07T04:56:39;12.40;;;7.10;;
47856;SDS011;33618;49.972;8.242;2022-12-07T04:59:07;15.77;;;7.60;;
47856;SDS011;33618;49.972;8.242;2022-12-07T05:01:34;11.25;;;6.95;;
47856;SDS011;33618;49.972;8.242;2022-12-07T05:04:01;12.27;;;7.18;;
47856;SDS011;33618;49.972;8.242;2022-12-07T05:06:28;10.52;;;6.70;;
47856;SDS011;33618;49.972;8.242;2022-12-07T05:08:55;12.57;;;7.47;;
47856;SDS011;33618;49.972;8.242;2022-12-07T05:11:22;12.35;;;7.18;;
47856;SDS011;33618;49.972;8.242;2022-12-07T05:16:44;12.82;;;7.53;;
47856;SDS011;33618;49.972;8.242;2022-12-07T05:19:13;13.57;;;7.75;;
47856;SDS011;33618;49.972;8.242;2022-12-07T05:38:31;11.27;;;7.05;;
47856;SDS011;33618;49.972;8.242;2022-12-07T05:41:02;16.48;;;8.52;;
47856;SDS011;33618;49.972;8.242;2022-12-07T05:43:30;12.32;;;7.88;;
47856;SDS011;33618;49.972;8.242;2022-12-07T05:45:59;14.90;;;6.93;;
47856;SDS011;33618;49.972;8.242;2022-12-07T05:48:26;16.00;;;8.35;;
47856;SDS011;33618;49.972;8.242;2022-12-07T05:50:53;14.30;;;8.10;;
47856;SDS011;33618;49.972;8.242;2022-12-07T05:53:20;14.15;;;7.65;;
47856;SDS011;33618;49.972;8.242;2022-12-07T05:55:48;11.50;;;7.53;;
47856;SDS011;33618;49.972;8.242;2022-12-07T06:09:42;14.65;;;7.72;;
47856;SDS011;33618;49.972;8.242;2022-12-07T06:12:12;12.82;;;8.05;;
47856;SDS011;33618;49.972;8.242;2022-12-07T06:14:59;13.60;;;8.07;;
47856;SDS011;33618;49.972;8.242;2022-12-07T06:17:26;13.73;;;7.85;;
47856;SDS011;33618;49.972;8.242;2022-12-07T06:19:53;13.35;;;7.47;;
47856;SDS011;33618;49.972;8.242;2022-12-07T06:22:20;12.43;;;7.80;;
47856;SDS011;33618;49.972;8.242;2022-12-07T06:24:47;14.88;;;8.57;;
47856;SDS011;33618;49.972;8.242;2022-12-07T06:28:10;14.45;;;8.52;;
47856;SDS011;33618;49.972;8.242;2022-12-07T06:30:37;13.63;;;8.15;;
47856;SDS011;33618;49.972;8.242;2022-12-07T06:33:04;13.57;;;8.40;;
47856;SDS011;33618;49.972;8.242;2022-12-07T06:35:32;11.48;;;7.45;;
47856;SDS011;33618;49.972;8.242;2022-12-07T06:37:59;12.85;;;7.63;;
47856;SDS011;33618;49.972;8.242;2022-12-07T06:40:26;12.13;;;7.50;;
47856;SDS011;33618;49.972;8.242;2022-12-07T06:42:53;11.15;;;7.07;;
47856;SDS011;33618;49.972;8.242;2022-12-07T06:45:20;9.20;;;6.72;;
47856;SDS011;33618;49.972;8.242;2022-12-07T06:47:47;12.02;;;7.28;;
47856;SDS011;33618;49.972;8.242;2022-12-07T06:50:17;13.57;;;7.57;;
47856;SDS011;33618;49.972;8.242;2022-12-07T06:52:44;12.32;;;7.70;;
47856;SDS011;33618;49.972;8.242;2022-12-07T06:55:11;11.27;;;7.10;;
47856;SDS011;33618;49.972;8.242;2022-12-07T06:57:38;10.93;;;7.20;;
47856;SDS011;33618;49.972;8.242;2022-12-07T07:00:05;11.77;;;7.40;;
47856;SDS011;33618;49.972;8.242;2022-12-07T07:02:34;12.35;;;7.90;;
47856;SDS011;33618;49.972;8.242;2022-12-07T07:05:01;13.07;;;7.88;;
47856;SDS011;33618;49.972;8.242;2022-12-07T07:07:29;12.70;;;7.88;;
47856;SDS011;33618;49.972;8.242;2022-12-07T07:09:56;11.85;;;7.53;;
47856;SDS011;33618;49.972;8.242;2022-12-07T07:12:23;12.00;;;6.90;;
47856;SDS011;33618;49.972;8.242;2022-12-07T07:14:50;12.50;;;7.10;;
47856;SDS011;33618;49.972;8.242;2022-12-07T07:17:17;15.88;;;7.50;;
47856;SDS011;33618;49.972;8.242;2022-12-07T07:19:44;11.85;;;7.03;;
47856;SDS011;33618;49.972;8.242;2022-12-07T07:22:12;10.52;;;6.78;;
47856;SDS011;33618;49.972;8.242;2022-12-07T07:24:38;10.35;;;7.00;;
47856;SDS011;33618;49.972;8.242;2022-12-07T07:27:05;10.80;;;6.47;;
47856;SDS011;33618;49.972;8.242;2022-12-07T07:29:32;9.85;;;6.57;;
47856;SDS011;33618;49.972;8.242;2022-12-07T07:31:59;9.45;;;6.57;;
47856;SDS011;33618;49.972;8.242;2022-12-07T07:34:32;11.02;;;6.30;;
47856;SDS011;33618;49.972;8.242;2022-12-07T07:36:59;9.93;;;6.10;;
47856;SDS011;33618;49.972;8.242;2022-12-07T07:39:27;9.68;;;6.20;;
47856;SDS011;33618;49.972;8.242;2022-12-07T07:41:54;7.68;;;5.63;;
47856;SDS011;33618;49.972;8.242;2022-12-07T07:49:32;9.25;;;6.30;;
47856;SDS011;33618;49.972;8.242;2022-12-07T07:51:59;9.65;;;6.60;;
47856;SDS011;33618;49.972;8.242;2022-12-07T07:54:27;9.85;;;6.60;;
47856;SDS011;33618;49.972;8.242;2022-12-07T07:56:54;11.35;;;6.32;;
47856;SDS011;33618;49.972;8.242;2022-12-07T07:59:21;7.15;;;5.63;;
47856;SDS011;33618;49.972;8.242;2022-12-07T08:01:48;9.27;;;6.25;;
47856;SDS011;33618;49.972;8.242;2022-12-07T08:04:15;8.20;;;6.38;;
47856;SDS011;33618;49.972;8.242;2022-12-07T08:06:42;8.60;;;6.30;;
47856;SDS011;33618;49.972;8.242;2022-12-07T08:09:09;11.80;;;6.07;;
47856;SDS011;33618;49.972;8.242;2022-12-07T08:11:37;8.68;;;6.22;;
47856;SDS011;33618;49.972;8.242;2022-12-07T08:14:04;10.20;;;5.65;;
47856;SDS011;33618;49.972;8.242;2022-12-07T08:16:32;7.43;;;5.80;;
47856;SDS011;33618;49.972;8.242;2022-12-07T08:18:59;9.27;;;6.40;;
47856;SDS011;33618;49.972;8.242;2022-12-07T08:21:27;11.00;;;7.70;;
47856;SDS011;33618;49.972;8.242;2022-12-07T08:23:54;8.77;;;6.38;;
47856;SDS011;33618;49.972;8.242;2022-12-07T08:26:21;8.95;;;6.40;;
47856;SDS011;33618;49.972;8.242;2022-12-07T08:28:48;9.80;;;6.47;;
47856;SDS011;33618;49.972;8.242;2022-12-07T08:31:16;8.68;;;5.93;;
47856;SDS011;33618;49.972;8.242;2022-12-07T08:33:46;7.68;;;5.38;;
47856;SDS011;33618;49.972;8.242;2022-12-07T08:36:14;8.43;;;5.70;;
47856;SDS011;33618;49.972;8.242;2022-12-07T08:38:44;7.60;;;6.00;;
47856;SDS011;33618;49.972;8.242;2022-12-07T08:41:35;7.88;;;5.60;;
47856;SDS011;33618;49.972;8.242;2022-12-07T08:44:02;9.20;;;5.57;;
47856;SDS011;33618;49.972;8.242;2022-12-07T08:46:34;8.80;;;6.13;;
47856;SDS011;33618;49.972;8.242;2022-12-07T08:49:11;7.40;;;5.88;;
47856;SDS011;33618;49.972;8.242;2022-12-07T08:51:43;9.25;;;6.10;;
47856;SDS011;33618;49.972;8.242;2022-12-07T08:54:15;20.23;;;7.63;;
47856;SDS011;33618;49.972;8.242;2022-12-07T08:56:48;11.82;;;7.00;;
47856;SDS011;33618;49.972;8.242;2022-12-07T08:59:26;11.88;;;7.13;;
47856;SDS011;33618;49.972;8.242;2022-12-07T09:01:55;13.35;;;7.60;;
47856;SDS011;33618;49.972;8.242;2022-12-07T09:04:22;11.02;;;6.97;;
47856;SDS011;33618;49.972;8.242;2022-12-07T09:06:49;12.32;;;7.35;;
47856;SDS011;33618;49.972;8.242;2022-12-07T09:09:21;11.45;;;7.07;;
47856;SDS011;33618;49.972;8.242;2022-12-07T09:11:48;10.75;;;6.70;;
47856;SDS011;33618;49.972;8.242;2022-12-07T09:14:15;6.40;;;5.10;;
47856;SDS011;33618;49.972;8.242;2022-12-07T09:16:43;12.27;;;6.90;;
47856;SDS011;33618;49.972;8.242;2022-12-07T09:19:10;8.15;;;5.78;;
47856;SDS011;33618;49.972;8.242;2022-12-07T09:21:42;9.35;;;6.55;;
47856;SDS011;33618;49.972;8.242;2022-12-07T09:24:09;11.98;;;6.55;;
47856;SDS011;33618;49.972;8.242;2022-12-07T09:26:39;11.95;;;7.20;;
47856;SDS011;33618;49.972;8.242;2022-12-07T09:29:11;8.40;;;5.93;;
47856;SDS011;33618;49.972;8.242;2022-12-07T09:31:42;9.63;;;6.30;;
47856;SDS011;33618;49.972;8.242;2022-12-07T09:34:10;9.55;;;5.93;;
47856;SDS011;33618;49.972;8.242;2022-12-07T09:36:40;10.00;;;5.50;;
47856;SDS011;33618;49.972;8.242;2022-12-07T09:39:18;8.02;;;5.40;;
47856;SDS011;33618;49.972;8.242;2022-12-07T09:41:46;14.02;;;5.15;;
47856;SDS011;33618;49.972;8.242;2022-12-07T09:44:18;12.35;;;4.45;;
47856;SDS011;33618;49.972;8.242;2022-12-07T09:46:54;5.68;;;3.63;;
47856;SDS011;33618;49.972;8.242;2022-12-07T09:49:33;8.63;;;3.85;;
47856;SDS011;33618;49.972;8.242;2022-12-07T09:54:44;6.13;;;3.50;;
47856;SDS011;33618;49.972;8.242;2022-12-07T09:57:13;5.13;;;3.83;;
47856;SDS011;33618;49.972;8.242;2022-12-07T09:59:57;4.00;;;3.38;;
47856;SDS011;33618;49.972;8.242;2022-12-07T10:05:15;5.85;;;3.22;;
47856;SDS011;33618;49.972;8.242;2022-12-07T10:07:50;7.75;;;3.65;;
47856;SDS011;33618;49.972;8.242;2022-12-07T10:10:19;4.85;;;3.42;;
47856;SDS011;33618;49.972;8.242;2022-12-07T10:13:05;5.15;;;3.58;;
47856;SDS011;33618;49.972;8.242;2022-12-07T10:15:41;4.70;;;3.15;;
47856;SDS011;33618;49.972;8.242;2022-12-07T10:18:20;7.38;;;3.10;;
47856;SDS011;33618;49.972;8.242;2022-12-07T10:29:00;3.55;;;2.50;;
47856;SDS011;33618;49.972;8.242;2022-12-07T10:31:31;3.10;;;2.50;;
47856;SDS011;33618;49.972;8.242;2022-12-07T10:33:59;2.92;;;2.40;;
47856;SDS011;33618;49.972;8.242;2022-12-07T10:36:37;3.30;;;2.00;;
47856;SDS011;33618;49.972;8.242;2022-12-07T10:39:13;3.03;;;2.60;;
47856;SDS011;33618;49.972;8.242;2022-12-07T10:41:54;2.67;;;2.10;;
47856;SDS011;33618;49.972;8.242;2022-12-07T10:44:24;3.58;;;2.08;;
47856;SDS011;33618;49.972;8.242;2022-12-07T10:56:28;3.55;;;1.90;;
47856;SDS011;33618;49.972;8.242;2022-12-07T11:04:35;3.60;;;2.20;;
47856;SDS011;33618;49.972;8.242;2022-12-07T11:10:15;3.78;;;2.25;;
47856;SDS011;33618;49.972;8.242;2022-12-07T11:15:17;4.40;;;2.00;;
47856;SDS011;33618;49.972;8.242;2022-12-07T11:17:48;4.15;;;2.17;;
47856;SDS011;33618;49.972;8.242;2022-12-07T11:20:46;3.50;;;1.77;;
47856;SDS011;33618;49.972;8.242;2022-12-07T11:29:20;3.78;;;1.60;;
47856;SDS011;33618;49.972;8.242;2022-12-07T11:37:34;4.57;;;1.40;;
47856;SDS011;33618;49.972;8.242;2022-12-07T11:40:51;2.38;;;1.60;;
47856;SDS011;33618;49.972;8.242;2022-12-07T11:46:06;3.50;;;1.45;;
47856;SDS011;33618;49.972;8.242;2022-12-07T11:48:38;4.28;;;1.45;;
47856;SDS011;33618;49.972;8.242;2022-12-07T11:51:11;1.70;;;1.17;;
47856;SDS011;33618;49.972;8.242;2022-12-07T11:53:41;5.32;;;1.60;;
47856;SDS011;33618;49.972;8.242;2022-12-07T11:56:15;3.92;;;1.42;;
47856;SDS011;33618;49.972;8.242;2022-12-07T12:01:32;5.90;;;1.38;;
47856;SDS011;33618;49.972;8.242;2022-12-07T12:04:19;2.30;;;1.45;;
47856;SDS011;33618;49.972;8.242;2022-12-07T12:06:54;3.92;;;1.58;;
47856;SDS011;33618;49.972;8.242;2022-12-07T12:09:29;2.33;;;1.50;;
47856;SDS011;33618;49.972;8.242;2022-12-07T12:20:26;1.67;;;1.50;;
47856;SDS011;33618;49.972;8.242;2022-12-07T12:22:57;2.80;;;1.70;;
47856;SDS011;33618;49.972;8.242;2022-12-07T12:25:28;2.70;;;1.85;;
47856;SDS011;33618;49.972;8.242;2022-12-07T12:28:02;1.50;;;1.40;;
47856;SDS011;33618;49.972;8.242;2022-12-07T12:30:31;1.55;;;1.20;;
47856;SDS011;33618;49.972;8.242;2022-12-07T12:33:05;1.40;;;1.30;;
47856;SDS011;33618;49.972;8.242;2022-12-07T12:35:42;1.83;;;1.08;;
47856;SDS011;33618;49.972;8.242;2022-12-07T12:40:51;3.38;;;1.50;;
47856;SDS011;33618;49.972;8.242;2022-12-07T12:51:42;2.45;;;1.50;;
47856;SDS011;33618;49.972;8.242;2022-12-07T12:54:13;3.92;;;1.77;;
47856;SDS011;33618;49.972;8.242;2022-12-07T12:57:05;5.00;;;1.48;;
47856;SDS011;33618;49.972;8.242;2022-12-07T13:13:28;6.03;;;1.60;;
47856;SDS011;33618;49.972;8.242;2022-12-07T13:15:49;2.25;;;1.17;;
47856;SDS011;33618;49.972;8.242;2022-12-07T13:18:38;4.10;;;1.48;;
47856;SDS011;33618;49.972;8.242;2022-12-07T13:23:36;2.05;;;1.20;;
47856;SDS011;33618;49.972;8.242;2022-12-07T13:31:56;1.88;;;1.30;;
47856;SDS011;33618;49.972;8.242;2022-12-07T13:34:29;3.58;;;1.25;;
47856;SDS011;33618;49.972;8.242;2022-12-07T13:36:58;1.60;;;1.10;;
47856;SDS011;33618;49.972;8.242;2022-12-07T13:39:44;4.13;;;1.20;;
47856;SDS011;33618;49.972;8.242;2022-12-07T13:44:55;2.85;;;1.13;;
47856;SDS011;33618;49.972;8.242;2022-12-07T13:47:36;2.95;;;1.27;;
47856;SDS011;33618;49.972;8.242;2022-12-07T13:52:56;2.53;;;1.45;;
47856;SDS011;33618;49.972;8.242;2022-12-07T13:55:25;2.70;;;1.60;;
47856;SDS011;33618;49.972;8.242;2022-12-07T14:28:31;2.65;;;1.50;;
47856;SDS011;33618;49.972;8.242;2022-12-07T14:31:15;5.78;;;1.50;;
47856;SDS011;33618;49.972;8.242;2022-12-07T14:36:53;2.15;;;1.30;;
47856;SDS011;33618;49.972;8.242;2022-12-07T14:39:20;1.50;;;1.40;;
47856;SDS011;33618;49.972;8.242;2022-12-07T14:41:47;3.35;;;1.30;;
47856;SDS011;33618;49.972;8.242;2022-12-07T14:44:18;1.90;;;1.45;;
47856;SDS011;33618;49.972;8.242;2022-12-07T14:46:51;3.67;;;1.48;;
47856;SDS011;33618;49.972;8.242;2022-12-07T14:49:38;2.40;;;1.20;;
47856;SDS011;33618;49.972;8.242;2022-12-07T14:52:06;3.10;;;1.30;;
47856;SDS011;33618;49.972;8.242;2022-12-07T14:55:22;2.53;;;1.25;;
47856;SDS011;33618;49.972;8.242;2022-12-07T14:57:57;2.72;;;1.60;;
47856;SDS011;33618;49.972;8.242;2022-12-07T15:00:27;1.75;;;1.40;;
47856;SDS011;33618;49.972;8.242;2022-12-07T15:02:54;3.22;;;1.52;;
47856;SDS011;33618;49.972;8.242;2022-12-07T15:05:22;7.93;;;1.60;;
47856;SDS011;33618;49.972;8.242;2022-12-07T15:07:50;3.63;;;1.60;;
47856;SDS011;33618;49.972;8.242;2022-12-07T15:10:19;3.35;;;1.60;;
47856;SDS011;33618;49.972;8.242;2022-12-07T15:12:50;3.35;;;2.00;;
47856;SDS011;33618;49.972;8.242;2022-12-07T15:15:17;3.83;;;1.70;;
47856;SDS011;33618;49.972;8.242;2022-12-07T15:17:44;4.20;;;1.88;;
47856;SDS011;33618;49.972;8.242;2022-12-07T15:20:12;3.22;;;1.90;;
47856;SDS011;33618;49.972;8.242;2022-12-07T15:22:41;2.72;;;1.33;;
47856;SDS011;33618;49.972;8.242;2022-12-07T15:25:08;6.05;;;1.90;;
47856;SDS011;33618;49.972;8.242;2022-12-07T15:27:38;3.50;;;1.70;;
47856;SDS011;33618;49.972;8.242;2022-12-07T15:30:06;3.83;;;1.48;;
47856;SDS011;33618;49.972;8.242;2022-12-07T15:32:33;3.50;;;1.55;;
47856;SDS011;33618;49.972;8.242;2022-12-07T15:35:01;2.45;;;1.40;;
47856;SDS011;33618;49.972;8.242;2022-12-07T15:37:29;1.50;;;1.40;;
47856;SDS011;33618;49.972;8.242;2022-12-07T15:39:56;3.42;;;1.50;;
47856;SDS011;33618;49.972;8.242;2022-12-07T15:42:29;3.50;;;2.08;;
47856;SDS011;33618;49.972;8.242;2022-12-07T15:44:56;2.90;;;1.48;;
47856;SDS011;33618;49.972;8.242;2022-12-07T15:47:34;6.28;;;2.40;;
47856;SDS011;33618;49.972;8.242;2022-12-07T15:50:23;7.25;;;1.70;;
47856;SDS011;33618;49.972;8.242;2022-12-07T15:52:51;2.92;;;1.58;;
47856;SDS011;33618;49.972;8.242;2022-12-07T15:55:18;3.67;;;1.88;;
47856;SDS011;33618;49.972;8.242;2022-12-07T15:57:45;6.05;;;1.73;;
47856;SDS011;33618;49.972;8.242;2022-12-07T16:00:13;3.40;;;1.70;;
47856;SDS011;33618;49.972;8.242;2022-12-07T16:02:40;2.85;;;1.60;;
47856;SDS011;33618;49.972;8.242;2022-12-07T16:05:07;1.88;;;1.40;;
47856;SDS011;33618;49.972;8.242;2022-12-07T16:07:35;3.40;;;1.50;;
47856;SDS011;33618;49.972;8.242;2022-12-07T16:10:02;4.65;;;2.20;;
47856;SDS011;33618;49.972;8.242;2022-12-07T16:12:30;4.50;;;1.67;;
47856;SDS011;33618;49.972;8.242;2022-12-07T16:14:57;4.82;;;1.73;;
47856;SDS011;33618;49.972;8.242;2022-12-07T16:17:25;4.75;;;1.77;;
47856;SDS011;33618;49.972;8.242;2022-12-07T16:19:53;3.30;;;1.60;;
47856;SDS011;33618;49.972;8.242;2022-12-07T16:22:21;2.75;;;1.70;;
47856;SDS011;33618;49.972;8.242;2022-12-07T16:24:48;2.75;;;1.80;;
47856;SDS011;33618;49.972;8.242;2022-12-07T16:27:15;2.10;;;1.88;;
47856;SDS011;33618;49.972;8.242;2022-12-07T16:29:43;7.70;;;5.43;;
47856;SDS011;33618;49.972;8.242;2022-12-07T16:32:10;6.15;;;4.38;;
47856;SDS011;33618;49.972;8.242;2022-12-07T16:34:38;11.57;;;5.80;;
47856;SDS011;33618;49.972;8.242;2022-12-07T16:37:06;28.83;;;13.35;;
47856;SDS011;33618;49.972;8.242;2022-12-07T16:39:33;30.05;;;14.10;;
47856;SDS011;33618;49.972;8.242;2022-12-07T16:42:01;10.48;;;5.57;;
47856;SDS011;33618;49.972;8.242;2022-12-07T16:44:29;9.88;;;4.53;;
47856;SDS011;33618;49.972;8.242;2022-12-07T16:46:58;8.05;;;3.80;;
47856;SDS011;33618;49.972;8.242;2022-12-07T16:49:26;7.82;;;4.05;;
47856;SDS011;33618;49.972;8.242;2022-12-07T16:51:54;11.43;;;6.95;;
47856;SDS011;33618;49.972;8.242;2022-12-07T16:54:41;4.97;;;4.00;;
47856;SDS011;33618;49.972;8.242;2022-12-07T16:57:08;7.38;;;5.22;;
47856;SDS011;33618;49.972;8.242;2022-12-07T16:59:35;7.13;;;4.47;;
47856;SDS011;33618;49.972;8.242;2022-12-07T17:02:03;4.47;;;3.20;;
47856;SDS011;33618;49.972;8.242;2022-12-07T17:04:30;9.60;;;3.05;;
47856;SDS011;33618;49.972;8.242;2022-12-07T17:06:58;12.25;;;6.97;;
47856;SDS011;33618;49.972;8.242;2022-12-07T17:09:25;5.90;;;4.03;;
47856;SDS011;33618;49.972;8.242;2022-12-07T17:11:52;7.28;;;5.07;;
47856;SDS011;33618;49.972;8.242;2022-12-07T17:14:19;16.40;;;7.07;;
47856;SDS011;33618;49.972;8.242;2022-12-07T17:17:05;3.67;;;3.03;;
47856;SDS011;33618;49.972;8.242;2022-12-07T17:19:32;8.63;;;4.40;;
47856;SDS011;33618;49.972;8.242;2022-12-07T17:21:59;5.75;;;3.22;;
47856;SDS011;33618;49.972;8.242;2022-12-07T17:24:26;5.57;;;4.00;;
47856;SDS011;33618;49.972;8.242;2022-12-07T17:26:53;4.38;;;3.55;;
47856;SDS011;33618;49.972;8.242;2022-12-07T17:36:57;5.30;;;3.67;;
47856;SDS011;33618;49.972;8.242;2022-12-07T17:39:24;5.88;;;3.47;;
47856;SDS011;33618;49.972;8.242;2022-12-07T17:41:51;5.05;;;3.88;;
47856;SDS011;33618;49.972;8.242;2022-12-07T17:44:37;3.80;;;3.40;;
47856;SDS011;33618;49.972;8.242;2022-12-07T17:47:04;5.47;;;3.50;;
47856;SDS011;33618;49.972;8.242;2022-12-07T17:49:32;5.30;;;3.38;;
47856;SDS011;33618;49.972;8.242;2022-12-07T17:52:00;6.97;;;3.95;;
47856;SDS011;33618;49.972;8.242;2022-12-07T17:54:45;7.55;;;4.10;;
47856;SDS011;33618;49.972;8.242;2022-12-07T17:57:12;4.55;;;3.70;;
47856;SDS011;33618;49.972;8.242;2022-12-07T17:59:39;8.85;;;4.43;;
47856;SDS011;33618;49.972;8.242;2022-12-07T18:02:08;6.28;;;3.70;;
47856;SDS011;33618;49.972;8.242;2022-12-07T18:04:36;7.55;;;3.70;;
47856;SDS011;33618;49.972;8.242;2022-12-07T18:07:03;6.10;;;3.95;;
47856;SDS011;33618;49.972;8.242;2022-12-07T18:09:32;6.15;;;4.25;;
47856;SDS011;33618;49.972;8.242;2022-12-07T18:11:59;7.50;;;4.38;;
47856;SDS011;33618;49.972;8.242;2022-12-07T18:14:28;5.50;;;4.03;;
47856;SDS011;33618;49.972;8.242;2022-12-07T18:16:55;5.82;;;4.13;;
47856;SDS011;33618;49.972;8.242;2022-12-07T18:19:22;4.57;;;3.83;;
47856;SDS011;33618;49.972;8.242;2022-12-07T18:21:49;6.63;;;4.20;;
47856;SDS011;33618;49.972;8.242;2022-12-07T18:24:17;5.93;;;4.03;;
47856;SDS011;33618;49.972;8.242;2022-12-07T18:26:45;6.22;;;4.03;;
47856;SDS011;33618;49.972;8.242;2022-12-07T18:29:15;7.00;;;4.20;;
47856;SDS011;33618;49.972;8.242;2022-12-07T18:31:43;7.78;;;4.03;;
47856;SDS011;33618;49.972;8.242;2022-12-07T18:34:14;6.65;;;3.78;;
47856;SDS011;33618;49.972;8.242;2022-12-07T18:36:44;7.40;;;5.32;;
47856;SDS011;33618;49.972;8.242;2022-12-07T18:39:12;5.72;;;4.35;;
47856;SDS011;33618;49.972;8.242;2022-12-07T18:41:41;8.02;;;4.40;;
47856;SDS011;33618;49.972;8.242;2022-12-07T18:44:09;8.65;;;4.75;;
47856;SDS011;33618;49.972;8.242;2022-12-07T18:46:39;7.68;;;4.95;;
47856;SDS011;33618;49.972;8.242;2022-12-07T18:49:08;6.75;;;4.63;;
47856;SDS011;33618;49.972;8.242;2022-12-07T18:51:40;6.93;;;4.40;;
47856;SDS011;33618;49.972;8.242;2022-12-07T18:54:08;8.52;;;5.60;;